createdAt,value
2023-09-08T00:01:32.350Z,16.93
2023-09-08T00:04:23.192Z,16.98
2023-09-08T00:07:13.985Z,16.94
2023-09-08T00:10:05.268Z,17.00
2023-09-08T00:12:56.015Z,17.05
2023-09-08T00:15:46.721Z,17.08
2023-09-08T00:18:37.442Z,17.11
2023-09-08T00:21:28.608Z,17.13
2023-09-08T00:24:19.742Z,17.16
2023-09-08T00:27:11.209Z,17.17
2023-09-08T00:30:03.174Z,17.18
2023-09-08T00:32:54.201Z,17.20
2023-09-08T00:35:51.164Z,17.22
2023-09-08T00:38:42.642Z,17.23
2023-09-08T00:41:34.465Z,17.26
2023-09-08T00:44:25.305Z,17.29
2023-09-08T00:47:16.345Z,17.32
2023-09-08T00:50:08.038Z,17.35
2023-09-08T00:52:58.909Z,17.36
2023-09-08T00:55:50.310Z,17.40
2023-09-08T00:58:41.254Z,17.43
2023-09-08T01:01:32.740Z,17.46
2023-09-08T01:04:23.555Z,17.49
2023-09-08T01:07:16.027Z,17.54
2023-09-08T01:10:07.503Z,17.58
2023-09-08T01:12:58.735Z,17.59
2023-09-08T01:15:50.666Z,17.63
2023-09-08T01:18:41.932Z,17.64
2023-09-08T01:21:44.709Z,17.66
2023-09-08T01:25:21.185Z,17.67
2023-09-08T01:28:13.466Z,17.67
2023-09-08T01:31:05.004Z,17.65
2023-09-08T01:33:56.697Z,17.62
2023-09-08T01:36:47.460Z,17.59
2023-09-08T01:39:38.181Z,17.58
2023-09-08T01:42:28.985Z,17.57
2023-09-08T01:45:19.786Z,17.57
2023-09-08T01:48:10.618Z,17.58
2023-09-08T01:51:01.324Z,17.61
2023-09-08T01:53:52.205Z,17.63
2023-09-08T01:56:42.943Z,17.67
2023-09-08T01:59:33.738Z,17.69
2023-09-08T02:02:24.542Z,17.71
2023-09-08T02:05:15.962Z,17.74
2023-09-08T02:08:06.898Z,17.77
2023-09-08T02:10:57.599Z,17.78
2023-09-08T02:13:48.415Z,17.80
2023-09-08T02:16:39.089Z,17.79
2023-09-08T02:19:29.906Z,17.78
2023-09-08T02:22:20.700Z,17.78
2023-09-08T02:25:11.438Z,17.77
2023-09-08T02:28:02.219Z,17.76
2023-09-08T02:30:53.017Z,17.76
2023-09-08T02:33:43.884Z,17.75
2023-09-08T02:36:34.680Z,17.73
2023-09-08T02:39:28.102Z,17.70
2023-09-08T02:42:18.860Z,17.70
2023-09-08T02:45:09.964Z,17.66
2023-09-08T02:48:00.699Z,17.62
2023-09-08T02:50:51.395Z,17.54
2023-09-08T02:53:42.365Z,17.43
2023-09-08T02:56:33.141Z,17.34
2023-09-08T02:59:23.800Z,17.24
2023-09-08T03:02:14.687Z,17.11
2023-09-08T03:05:05.618Z,17.01
2023-09-08T03:07:56.358Z,16.92
2023-09-08T03:10:47.099Z,16.87
2023-09-08T03:13:37.806Z,16.82
2023-09-08T03:16:28.561Z,16.75
2023-09-08T03:19:19.353Z,16.69
2023-09-08T03:22:10.035Z,16.65
2023-09-08T03:25:00.732Z,16.65
2023-09-08T03:27:51.458Z,16.65
2023-09-08T03:30:42.183Z,16.61
2023-09-08T03:33:33.151Z,16.54
2023-09-08T03:36:24.082Z,16.48
2023-09-08T03:39:14.796Z,16.43
2023-09-08T03:42:05.650Z,16.40
2023-09-08T03:44:56.331Z,16.36
2023-09-08T03:47:47.054Z,16.29
2023-09-08T03:50:37.771Z,16.22
2023-09-08T03:53:28.478Z,16.13
2023-09-08T03:56:19.314Z,16.06
2023-09-08T03:59:10.010Z,15.99
2023-09-08T04:02:02.238Z,15.92
2023-09-08T04:04:52.943Z,15.89
2023-09-08T04:07:43.883Z,15.83
2023-09-08T04:10:34.782Z,15.77
2023-09-08T04:13:25.468Z,15.74
2023-09-08T04:16:16.733Z,15.70
2023-09-08T04:19:07.488Z,15.70
2023-09-08T04:21:58.147Z,15.72
2023-09-08T04:24:48.886Z,15.76
2023-09-08T04:27:39.745Z,15.83
2023-09-08T04:30:30.432Z,15.91
2023-09-08T04:33:21.227Z,16.03
2023-09-08T04:36:12.297Z,16.14
2023-09-08T04:39:03.072Z,16.24
2023-09-08T04:41:53.786Z,16.37
2023-09-08T04:44:46.134Z,16.49
2023-09-08T04:47:38.785Z,16.59
2023-09-08T04:50:29.557Z,16.72
2023-09-08T04:53:20.256Z,16.82
2023-09-08T04:56:11.079Z,16.91
2023-09-08T04:59:02.212Z,17.04
2023-09-08T05:01:53.144Z,17.16
2023-09-08T05:04:43.813Z,17.28
2023-09-08T05:07:34.527Z,17.40
2023-09-08T05:10:26.246Z,17.52
2023-09-08T05:13:30.260Z,17.67
2023-09-08T05:16:37.376Z,17.83
2023-09-08T05:19:28.370Z,18.02
2023-09-08T05:22:19.433Z,18.17
2023-09-08T05:25:10.656Z,18.34
2023-09-08T05:28:01.826Z,18.52
2023-09-08T05:30:54.688Z,18.71
2023-09-08T05:33:45.569Z,18.90
2023-09-08T05:36:41.018Z,19.08
2023-09-08T05:39:31.922Z,19.30
2023-09-08T05:42:22.674Z,19.51
2023-09-08T05:45:13.395Z,19.71
2023-09-08T05:48:04.474Z,19.92
2023-09-08T05:50:55.691Z,20.10
2023-09-08T05:53:46.508Z,20.31
2023-09-08T05:56:39.393Z,20.51
2023-09-08T05:59:30.582Z,20.69
2023-09-08T06:02:21.301Z,20.87
2023-09-08T06:05:12.064Z,21.09
2023-09-08T06:08:07.595Z,21.36
2023-09-08T06:10:58.752Z,21.67
2023-09-08T06:13:49.483Z,22.12
2023-09-08T06:16:41.129Z,22.83
2023-09-08T06:19:32.058Z,23.49
2023-09-08T06:22:23.261Z,24.14
2023-09-08T06:25:14.094Z,24.50
2023-09-08T06:28:05.244Z,24.64
2023-09-08T06:30:56.344Z,24.48
2023-09-08T06:33:47.311Z,24.82
2023-09-08T06:36:38.384Z,25.61
2023-09-08T06:39:29.580Z,26.34
2023-09-08T06:42:20.302Z,26.87
2023-09-08T06:45:11.229Z,27.40
2023-09-08T06:48:02.330Z,27.82
2023-09-08T06:50:57.490Z,28.12
2023-09-08T06:53:57.539Z,28.57
2023-09-08T06:56:48.243Z,29.12
2023-09-08T06:59:39.006Z,29.56
2023-09-08T07:02:29.712Z,29.61
2023-09-08T07:05:20.692Z,29.57
2023-09-08T07:08:11.562Z,29.70
2023-09-08T07:11:02.331Z,30.01
2023-09-08T07:13:53.021Z,30.24
2023-09-08T07:16:43.994Z,30.46
2023-09-08T07:19:34.788Z,30.61
2023-09-08T07:22:25.547Z,30.34
2023-09-08T07:25:16.291Z,30.13
2023-09-08T07:28:07.101Z,29.77
2023-09-08T07:31:05.842Z,29.66
2023-09-08T07:33:56.660Z,29.61
2023-09-08T07:36:47.315Z,29.60
2023-09-08T07:39:38.000Z,29.57
2023-09-08T07:42:28.708Z,29.55
2023-09-08T07:45:19.434Z,29.61
2023-09-08T07:48:10.275Z,29.66
2023-09-08T07:51:01.347Z,29.65
2023-09-08T07:53:52.996Z,29.64
2023-09-08T07:56:43.785Z,29.68
2023-09-08T07:59:36.016Z,29.76
2023-09-08T08:02:28.564Z,29.84
2023-09-08T08:05:19.414Z,29.87
2023-09-08T08:08:10.855Z,29.96
2023-09-08T08:11:01.579Z,29.97
2023-09-08T08:13:52.732Z,29.89
2023-09-08T08:16:43.488Z,29.83
2023-09-08T08:19:34.347Z,29.87
2023-09-08T08:22:26.486Z,29.91
2023-09-08T08:25:17.301Z,29.94
2023-09-08T08:28:07.985Z,30.00
2023-09-08T08:30:58.853Z,30.10
2023-09-08T08:33:49.808Z,30.15
2023-09-08T08:36:40.581Z,30.12
2023-09-08T08:39:31.274Z,30.14
2023-09-08T08:42:23.686Z,30.12
2023-09-08T08:45:15.321Z,30.15
2023-09-08T08:48:07.230Z,30.15
2023-09-08T08:51:00.107Z,30.32
2023-09-08T08:53:50.874Z,30.45
2023-09-08T08:56:42.645Z,30.40
2023-09-08T08:59:33.776Z,30.36
2023-09-08T09:02:27.188Z,30.50
2023-09-08T09:05:18.464Z,30.54
2023-09-08T09:08:10.634Z,30.63
2023-09-08T09:11:01.423Z,30.69
2023-09-08T09:13:52.115Z,30.69
2023-09-08T09:16:44.343Z,30.77
2023-09-08T09:19:36.713Z,30.84
2023-09-08T09:22:38.269Z,30.86
2023-09-08T09:25:31.920Z,30.84
2023-09-08T09:28:22.939Z,30.81
2023-09-08T09:31:13.821Z,30.77
2023-09-08T09:34:06.420Z,30.83
2023-09-08T09:36:57.957Z,30.89
2023-09-08T09:39:53.786Z,30.92
2023-09-08T09:42:44.686Z,31.00
2023-09-08T09:45:36.746Z,31.02
2023-09-08T09:48:29.115Z,31.03
2023-09-08T09:51:21.109Z,31.02
2023-09-08T09:54:13.092Z,31.05
2023-09-08T09:57:04.899Z,31.12
2023-09-08T09:59:57.342Z,31.28
2023-09-08T10:02:48.541Z,31.44
2023-09-08T10:05:39.335Z,31.51
2023-09-08T10:08:34.215Z,31.63
2023-09-08T10:11:29.405Z,31.68
2023-09-08T10:14:20.217Z,31.83
2023-09-08T10:17:18.199Z,31.91
2023-09-08T10:20:14.265Z,32.03
2023-09-08T10:23:37.949Z,32.18
2023-09-08T10:26:30.693Z,32.40
2023-09-08T10:29:23.369Z,32.55
2023-09-08T10:32:15.034Z,32.60
2023-09-08T10:35:07.227Z,32.64
2023-09-08T10:38:27.731Z,32.74
2023-09-08T10:41:18.559Z,32.96
2023-09-08T10:44:10.069Z,33.19
2023-09-08T10:47:00.835Z,33.45
2023-09-08T10:49:56.163Z,33.54
2023-09-08T10:53:15.702Z,33.62
2023-09-08T10:56:18.614Z,33.52
2023-09-08T10:59:11.570Z,33.49
2023-09-08T11:02:05.329Z,33.59
2023-09-08T11:04:56.555Z,33.61
2023-09-08T11:07:50.380Z,33.67
2023-09-08T11:10:42.080Z,33.56
2023-09-08T11:13:32.758Z,33.65
2023-09-08T11:16:30.543Z,33.75
2023-09-08T11:19:21.884Z,33.86
2023-09-08T11:22:12.701Z,33.91
2023-09-08T11:25:07.107Z,34.11
2023-09-08T11:27:58.645Z,34.05
2023-09-08T11:30:50.741Z,34.01
2023-09-08T11:33:42.131Z,34.24
2023-09-08T11:36:32.978Z,34.36
2023-09-08T11:39:26.700Z,34.31
2023-09-08T11:42:18.483Z,34.35
2023-09-08T11:45:09.688Z,34.42
2023-09-08T11:48:00.537Z,34.52
2023-09-08T11:50:54.776Z,34.49
2023-09-08T11:53:46.118Z,34.38
2023-09-08T11:56:38.028Z,34.38
2023-09-08T11:59:34.334Z,34.44
2023-09-08T12:02:25.088Z,34.50
2023-09-08T12:05:29.268Z,34.43
2023-09-08T12:08:20.040Z,34.24
2023-09-08T12:11:10.856Z,34.07
2023-09-08T12:14:02.853Z,34.04
2023-09-08T12:17:08.984Z,33.98
2023-09-08T12:19:59.851Z,34.04
2023-09-08T12:22:52.358Z,34.12
2023-09-08T12:25:51.431Z,34.11
2023-09-08T12:28:42.188Z,34.10
2023-09-08T12:31:33.173Z,33.99
2023-09-08T12:34:24.049Z,33.99
2023-09-08T12:37:14.775Z,34.00
2023-09-08T12:40:06.633Z,34.12
2023-09-08T12:43:02.948Z,34.18
2023-09-08T12:46:00.850Z,34.16
2023-09-08T12:48:51.507Z,34.14
2023-09-08T12:51:43.074Z,34.13
2023-09-08T12:54:33.897Z,34.12
2023-09-08T12:57:24.670Z,33.97
2023-09-08T13:00:15.590Z,33.95
2023-09-08T13:03:06.569Z,34.00
2023-09-08T13:05:57.280Z,34.13
2023-09-08T13:08:47.930Z,34.11
2023-09-08T13:11:38.764Z,34.20
2023-09-08T13:14:29.432Z,34.32
2023-09-08T13:17:20.202Z,34.38
2023-09-08T13:20:11.838Z,34.41
2023-09-08T13:23:02.557Z,34.35
2023-09-08T13:25:53.261Z,34.42
2023-09-08T13:28:44.499Z,34.50
2023-09-08T13:31:35.279Z,34.53
2023-09-08T13:34:26.269Z,34.46
2023-09-08T13:37:17.031Z,34.48
2023-09-08T13:40:09.320Z,34.52
2023-09-08T13:43:01.571Z,34.56
2023-09-08T13:45:52.299Z,34.60
2023-09-08T13:48:44.139Z,34.64
2023-09-08T13:51:38.405Z,34.48
2023-09-08T13:54:30.397Z,34.38
2023-09-08T13:57:23.083Z,34.29
2023-09-08T14:00:17.151Z,34.27
2023-09-08T14:03:13.395Z,34.19
2023-09-08T14:06:11.611Z,34.23
2023-09-08T14:09:40.410Z,34.24
2023-09-08T14:15:08.649Z,34.15
2023-09-08T14:17:59.381Z,34.10
2023-09-08T14:20:50.097Z,34.02
2023-09-08T14:23:41.858Z,34.11
2023-09-08T14:26:32.761Z,34.03
2023-09-08T14:29:24.547Z,33.93
2023-09-08T14:32:15.459Z,34.01
2023-09-08T14:35:06.911Z,34.09
2023-09-08T14:37:57.666Z,33.99
2023-09-08T14:41:00.330Z,33.84
2023-09-08T14:43:51.083Z,33.78
2023-09-08T14:46:41.901Z,33.61
2023-09-08T14:49:32.743Z,33.33
2023-09-08T14:52:23.799Z,32.99
2023-09-08T14:55:14.869Z,32.82
2023-09-08T14:58:05.580Z,32.83
2023-09-08T15:00:56.437Z,32.84
2023-09-08T15:03:47.454Z,32.98
2023-09-08T15:06:38.380Z,33.02
2023-09-08T15:09:29.146Z,32.84
2023-09-08T15:12:19.963Z,32.51
2023-09-08T15:15:11.116Z,32.09
2023-09-08T15:18:01.878Z,31.83
2023-09-08T15:20:54.138Z,31.72
2023-09-08T15:23:45.372Z,31.62
2023-09-08T15:26:36.255Z,31.41
2023-09-08T15:29:27.302Z,31.13
2023-09-08T15:32:18.006Z,30.86
2023-09-08T15:35:09.384Z,30.57
2023-09-08T15:38:00.173Z,30.38
2023-09-08T15:41:09.442Z,30.12
2023-09-08T15:44:00.296Z,29.91
2023-09-08T15:46:50.996Z,29.67
2023-09-08T15:49:42.804Z,29.44
2023-09-08T15:52:33.521Z,29.27
2023-09-08T15:55:25.105Z,29.06
2023-09-08T15:58:15.811Z,28.92
2023-09-08T16:01:07.846Z,28.75
2023-09-08T16:03:58.728Z,28.61
2023-09-08T16:06:49.641Z,28.47
2023-09-08T16:09:40.328Z,28.33
2023-09-08T16:12:32.744Z,28.20
2023-09-08T16:15:23.426Z,28.08
2023-09-08T16:18:14.256Z,27.95
2023-09-08T16:21:05.012Z,27.77
2023-09-08T16:23:55.964Z,27.65
2023-09-08T16:26:49.958Z,27.55
2023-09-08T16:29:40.949Z,27.42
2023-09-08T16:32:31.678Z,27.26
2023-09-08T16:35:22.448Z,27.08
2023-09-08T16:38:13.939Z,26.93
2023-09-08T16:41:04.663Z,26.72
2023-09-08T16:43:55.346Z,26.39
2023-09-08T16:46:46.023Z,26.17
2023-09-08T16:49:36.865Z,25.95
2023-09-08T16:52:27.534Z,25.73
2023-09-08T16:55:18.231Z,25.52
2023-09-08T16:58:08.881Z,25.25
2023-09-08T17:00:59.612Z,25.05
2023-09-08T17:03:50.602Z,24.84
2023-09-08T17:06:41.361Z,24.56
2023-09-08T17:09:32.161Z,24.37
2023-09-08T17:12:23.444Z,24.14
2023-09-08T17:15:14.265Z,23.88
2023-09-08T17:18:05.216Z,23.65
2023-09-08T17:20:59.334Z,23.41
2023-09-08T17:23:50.290Z,23.20
2023-09-08T17:26:41.039Z,22.93
2023-09-08T17:29:33.153Z,22.73
2023-09-08T17:32:23.982Z,22.50
2023-09-08T17:35:15.030Z,22.25
2023-09-08T17:38:06.406Z,22.01
2023-09-08T17:40:58.522Z,21.81
2023-09-08T17:43:50.348Z,21.64
2023-09-08T17:46:41.213Z,21.45
2023-09-08T17:49:31.987Z,21.26
2023-09-08T17:52:22.718Z,21.09
2023-09-08T17:55:14.822Z,20.94
2023-09-08T17:58:05.622Z,20.86
2023-09-08T18:00:56.348Z,20.72
2023-09-08T18:03:48.488Z,20.58
2023-09-08T18:06:39.407Z,20.44
2023-09-08T18:09:30.466Z,20.33
2023-09-08T18:12:22.342Z,20.20
2023-09-08T18:15:13.080Z,20.10
2023-09-08T18:18:03.991Z,20.04
2023-09-08T18:20:54.877Z,19.99
2023-09-08T18:23:47.135Z,19.95
2023-09-08T18:26:38.219Z,19.86
2023-09-08T18:29:29.844Z,19.74
2023-09-08T18:32:20.600Z,19.61
2023-09-08T18:35:11.418Z,19.47
2023-09-08T18:38:02.406Z,19.41
2023-09-08T18:40:53.115Z,19.35
2023-09-08T18:43:44.915Z,19.28
2023-09-08T18:46:35.672Z,19.23
2023-09-08T18:49:26.562Z,19.20
2023-09-08T18:52:17.266Z,19.12
2023-09-08T18:55:08.572Z,19.01
2023-09-08T18:57:59.297Z,18.93
2023-09-08T19:00:50.095Z,18.87
2023-09-08T19:03:43.871Z,18.85
2023-09-08T19:06:34.602Z,18.84
2023-09-08T19:09:25.307Z,18.80
2023-09-08T19:12:15.982Z,18.81
2023-09-08T19:15:07.404Z,18.83
2023-09-08T19:17:58.186Z,18.84
2023-09-08T19:20:48.920Z,18.84
2023-09-08T19:23:39.651Z,18.84
2023-09-08T19:26:30.475Z,18.80
2023-09-08T19:29:21.178Z,18.76
2023-09-08T19:32:11.843Z,18.74
2023-09-08T19:35:02.516Z,18.71
2023-09-08T19:37:58.854Z,18.69
2023-09-08T19:40:49.553Z,18.65
2023-09-08T19:43:40.975Z,18.62
2023-09-08T19:46:36.921Z,18.60
2023-09-08T19:49:27.691Z,18.58
2023-09-08T19:52:18.761Z,18.55
2023-09-08T19:55:10.007Z,18.47
2023-09-08T19:58:01.201Z,18.45
2023-09-08T20:00:51.999Z,18.45
2023-09-08T20:03:42.844Z,18.42
2023-09-08T20:06:33.617Z,18.39
2023-09-08T20:09:27.064Z,18.36
2023-09-08T20:12:17.733Z,18.35
2023-09-08T20:15:08.784Z,18.34
2023-09-08T20:18:00.448Z,18.30
2023-09-08T20:20:56.425Z,18.26
2023-09-08T20:23:47.298Z,18.19
2023-09-08T20:26:38.044Z,18.13
2023-09-08T20:29:29.575Z,18.11
2023-09-08T20:32:20.677Z,18.08
2023-09-08T20:35:11.444Z,18.07
2023-09-08T20:38:02.231Z,18.03
2023-09-08T20:40:53.589Z,17.95
2023-09-08T20:43:44.490Z,17.86
2023-09-08T20:46:35.282Z,17.74
2023-09-08T20:49:26.089Z,17.68
2023-09-08T20:52:16.787Z,17.66
2023-09-08T20:55:10.452Z,17.64
2023-09-08T20:58:01.125Z,17.62
2023-09-08T21:00:51.901Z,17.55
2023-09-08T21:03:42.599Z,17.45
2023-09-08T21:06:33.374Z,17.35
2023-09-08T21:09:24.177Z,17.23
2023-09-08T21:12:14.982Z,17.13
2023-09-08T21:15:06.762Z,17.04
2023-09-08T21:17:57.570Z,16.94
2023-09-08T21:20:49.247Z,16.87
2023-09-08T21:23:40.946Z,16.81
2023-09-08T21:26:31.736Z,16.78
2023-09-08T21:29:22.469Z,16.76
2023-09-08T21:32:13.171Z,16.71
2023-09-08T21:35:05.438Z,16.69
2023-09-08T21:37:56.239Z,16.64
2023-09-08T21:40:47.037Z,16.61
2023-09-08T21:43:38.605Z,16.58
2023-09-08T21:46:32.464Z,16.58
2023-09-08T21:49:23.417Z,16.54
2023-09-08T21:52:18.783Z,16.56
2023-09-08T21:55:20.481Z,16.55
2023-09-08T21:58:11.325Z,16.51
2023-09-08T22:01:02.147Z,16.48
2023-09-08T22:03:53.154Z,16.48
2023-09-08T22:06:44.045Z,16.51
2023-09-08T22:09:34.720Z,16.53
2023-09-08T22:12:25.387Z,16.54
2023-09-08T22:15:16.323Z,16.56
2023-09-08T22:18:07.084Z,16.56
2023-09-08T22:20:57.802Z,16.54
2023-09-08T22:23:51.881Z,16.54
2023-09-08T22:26:42.554Z,16.54
2023-09-08T22:29:33.215Z,16.54
2023-09-08T22:32:23.946Z,16.51
2023-09-08T22:35:15.212Z,16.53
2023-09-08T22:38:05.969Z,16.50
2023-09-08T22:40:56.709Z,16.49
2023-09-08T22:43:47.514Z,16.47
2023-09-08T22:46:38.337Z,16.48
2023-09-08T22:49:29.589Z,16.49
2023-09-08T22:52:20.814Z,16.43
2023-09-08T22:55:23.387Z,16.37
2023-09-08T22:58:16.382Z,16.33
2023-09-08T23:01:07.819Z,16.32
2023-09-08T23:03:58.589Z,16.32
2023-09-08T23:06:49.448Z,16.30
2023-09-08T23:09:42.367Z,16.30
2023-09-08T23:12:33.070Z,16.27
2023-09-08T23:15:25.990Z,16.22
2023-09-08T23:18:16.812Z,16.19
2023-09-08T23:21:07.857Z,16.14
2023-09-08T23:23:59.084Z,16.09
2023-09-08T23:26:49.946Z,16.09
2023-09-08T23:29:40.735Z,16.11
2023-09-08T23:32:31.901Z,16.10
2023-09-08T23:35:22.861Z,16.06
2023-09-08T23:38:13.623Z,15.96
2023-09-08T23:41:04.993Z,15.94
2023-09-08T23:43:55.684Z,15.89
2023-09-08T23:46:46.456Z,15.82
2023-09-08T23:49:37.178Z,15.75
2023-09-08T23:52:28.791Z,15.72
2023-09-08T23:55:19.648Z,15.61
2023-09-08T23:58:10.333Z,15.55
